sensor_id;sensor_type;location;lat;lon;timestamp;temperature;humidity
19734;DHT22;10018;51.230;7.860;2022-10-16T00:00:38;12.40;99.90
19734;DHT22;10018;51.230;7.860;2022-10-16T00:03:04;12.30;99.90
19734;DHT22;10018;51.230;7.860;2022-10-16T00:05:31;12.30;99.90
19734;DHT22;10018;51.230;7.860;2022-10-16T00:07:56;12.30;99.90
19734;DHT22;10018;51.230;7.860;2022-10-16T00:10:22;12.30;99.90
19734;DHT22;10018;51.230;7.860;2022-10-16T00:12:48;12.40;99.90
19734;DHT22;10018;51.230;7.860;2022-10-16T00:15:13;12.30;99.90
19734;DHT22;10018;51.230;7.860;2022-10-16T00:17:39;12.30;99.90
19734;DHT22;10018;51.230;7.860;2022-10-16T00:20:05;12.30;99.90
19734;DHT22;10018;51.230;7.860;2022-10-16T00:22:31;12.40;99.90
19734;DHT22;10018;51.230;7.860;2022-10-16T00:24:56;12.40;99.90
19734;DHT22;10018;51.230;7.860;2022-10-16T00:27:22;12.30;99.90
19734;DHT22;10018;51.230;7.860;2022-10-16T00:29:51;12.40;99.90
19734;DHT22;10018;51.230;7.860;2022-10-16T00:32:18;12.40;99.90
19734;DHT22;10018;51.230;7.860;2022-10-16T00:34:44;12.40;99.90
19734;DHT22;10018;51.230;7.860;2022-10-16T00:37:09;12.40;99.90
19734;DHT22;10018;51.230;7.860;2022-10-16T00:39:35;12.30;99.90
19734;DHT22;10018;51.230;7.860;2022-10-16T00:42:00;12.40;99.90
19734;DHT22;10018;51.230;7.860;2022-10-16T00:50:38;12.30;99.90
19734;DHT22;10018;51.230;7.860;2022-10-16T00:52:58;12.30;99.90
19734;DHT22;10018;51.230;7.860;2022-10-16T00:55:26;12.30;99.90
19734;DHT22;10018;51.230;7.860;2022-10-16T00:57:53;12.30;99.90
19734;DHT22;10018;51.230;7.860;2022-10-16T01:00:22;12.30;99.90
19734;DHT22;10018;51.230;7.860;2022-10-16T01:02:53;12.30;99.90
19734;DHT22;10018;51.230;7.860;2022-10-16T01:05:20;12.20;99.90
19734;DHT22;10018;51.230;7.860;2022-10-16T01:10:52;12.20;99.90
19734;DHT22;10018;51.230;7.860;2022-10-16T01:13:28;12.20;99.90
19734;DHT22;10018;51.230;7.860;2022-10-16T01:16:00;12.10;99.90
19734;DHT22;10018;51.230;7.860;2022-10-16T01:18:42;12.20;99.90
19734;DHT22;10018;51.230;7.860;2022-10-16T01:21:24;12.10;99.90
19734;DHT22;10018;51.230;7.860;2022-10-16T01:27:14;12.10;99.90
19734;DHT22;10018;51.230;7.860;2022-10-16T01:32:31;12.00;99.90
19734;DHT22;10018;51.230;7.860;2022-10-16T01:40:30;12.10;99.90
19734;DHT22;10018;51.230;7.860;2022-10-16T01:43:06;12.10;99.90
19734;DHT22;10018;51.230;7.860;2022-10-16T01:45:33;12.20;99.90
19734;DHT22;10018;51.230;7.860;2022-10-16T01:48:01;12.30;99.90
19734;DHT22;10018;51.230;7.860;2022-10-16T01:50:35;12.30;99.90
19734;DHT22;10018;51.230;7.860;2022-10-16T01:53:04;12.40;99.90
19734;DHT22;10018;51.230;7.860;2022-10-16T01:55:33;12.40;99.90
19734;DHT22;10018;51.230;7.860;2022-10-16T01:58:01;12.40;99.90
19734;DHT22;10018;51.230;7.860;2022-10-16T02:00:29;12.30;99.90
19734;DHT22;10018;51.230;7.860;2022-10-16T02:02:57;12.20;99.90
19734;DHT22;10018;51.230;7.860;2022-10-16T02:05:25;12.20;99.90
19734;DHT22;10018;51.230;7.860;2022-10-16T02:07:51;12.20;99.90
19734;DHT22;10018;51.230;7.860;2022-10-16T02:10:17;12.20;99.90
19734;DHT22;10018;51.230;7.860;2022-10-16T02:15:36;12.30;99.90
19734;DHT22;10018;51.230;7.860;2022-10-16T02:18:03;12.40;99.90
19734;DHT22;10018;51.230;7.860;2022-10-16T02:20:34;12.50;99.90
19734;DHT22;10018;51.230;7.860;2022-10-16T02:23:01;12.50;99.90
19734;DHT22;10018;51.230;7.860;2022-10-16T02:25:31;12.50;99.90
19734;DHT22;10018;51.230;7.860;2022-10-16T02:28:11;12.60;99.90
19734;DHT22;10018;51.230;7.860;2022-10-16T02:30:42;12.60;99.90
19734;DHT22;10018;51.230;7.860;2022-10-16T02:33:11;12.50;99.90
19734;DHT22;10018;51.230;7.860;2022-10-16T02:35:40;12.50;99.90
19734;DHT22;10018;51.230;7.860;2022-10-16T02:38:08;12.40;99.90
19734;DHT22;10018;51.230;7.860;2022-10-16T02:40:34;12.30;99.90
19734;DHT22;10018;51.230;7.860;2022-10-16T02:42:59;12.20;99.90
19734;DHT22;10018;51.230;7.860;2022-10-16T02:45:25;12.10;99.90
19734;DHT22;10018;51.230;7.860;2022-10-16T02:47:51;12.10;99.90
19734;DHT22;10018;51.230;7.860;2022-10-16T02:50:16;12.10;99.90
19734;DHT22;10018;51.230;7.860;2022-10-16T02:52:42;12.10;99.90
19734;DHT22;10018;51.230;7.860;2022-10-16T02:55:08;12.20;99.90
19734;DHT22;10018;51.230;7.860;2022-10-16T02:57:33;12.30;99.90
19734;DHT22;10018;51.230;7.860;2022-10-16T02:59:59;12.40;99.90
19734;DHT22;10018;51.230;7.860;2022-10-16T03:02:25;12.30;99.90
19734;DHT22;10018;51.230;7.860;2022-10-16T03:04:51;12.30;99.90
19734;DHT22;10018;51.230;7.860;2022-10-16T03:07:16;12.20;99.90
19734;DHT22;10018;51.230;7.860;2022-10-16T03:09:42;12.20;99.90
19734;DHT22;10018;51.230;7.860;2022-10-16T03:12:07;12.20;99.90
19734;DHT22;10018;51.230;7.860;2022-10-16T03:14:34;12.20;99.90
19734;DHT22;10018;51.230;7.860;2022-10-16T03:17:00;12.10;99.90
19734;DHT22;10018;51.230;7.860;2022-10-16T03:19:25;12.20;99.90
19734;DHT22;10018;51.230;7.860;2022-10-16T03:21:51;12.20;99.90
19734;DHT22;10018;51.230;7.860;2022-10-16T03:24:16;12.20;99.90
19734;DHT22;10018;51.230;7.860;2022-10-16T03:26:42;12.20;99.90
19734;DHT22;10018;51.230;7.860;2022-10-16T03:29:07;12.20;99.90
19734;DHT22;10018;51.230;7.860;2022-10-16T03:31:33;12.20;99.90
19734;DHT22;10018;51.230;7.860;2022-10-16T03:33:58;12.10;99.90
19734;DHT22;10018;51.230;7.860;2022-10-16T03:36:24;12.10;99.90
19734;DHT22;10018;51.230;7.860;2022-10-16T03:38:49;12.20;99.90
19734;DHT22;10018;51.230;7.860;2022-10-16T03:41:15;12.20;99.90
19734;DHT22;10018;51.230;7.860;2022-10-16T03:43:41;12.30;99.90
19734;DHT22;10018;51.230;7.860;2022-10-16T03:46:06;12.20;99.90
19734;DHT22;10018;51.230;7.860;2022-10-16T03:48:32;12.20;99.90
19734;DHT22;10018;51.230;7.860;2022-10-16T03:50:57;12.20;99.90
19734;DHT22;10018;51.230;7.860;2022-10-16T03:53:23;12.20;99.90
19734;DHT22;10018;51.230;7.860;2022-10-16T03:55:49;12.30;99.90
19734;DHT22;10018;51.230;7.860;2022-10-16T03:58:14;12.30;99.90
19734;DHT22;10018;51.230;7.860;2022-10-16T04:00:44;12.30;99.90
19734;DHT22;10018;51.230;7.860;2022-10-16T04:03:10;12.40;99.90
19734;DHT22;10018;51.230;7.860;2022-10-16T04:05:36;12.60;99.90
19734;DHT22;10018;51.230;7.860;2022-10-16T04:08:02;12.70;99.90
19734;DHT22;10018;51.230;7.860;2022-10-16T04:10:28;12.70;99.90
19734;DHT22;10018;51.230;7.860;2022-10-16T04:12:53;12.80;99.90
19734;DHT22;10018;51.230;7.860;2022-10-16T04:15:23;12.90;99.90
19734;DHT22;10018;51.230;7.860;2022-10-16T04:17:48;13.00;99.90
19734;DHT22;10018;51.230;7.860;2022-10-16T04:20:14;13.10;99.90
19734;DHT22;10018;51.230;7.860;2022-10-16T04:22:39;13.10;99.90
19734;DHT22;10018;51.230;7.860;2022-10-16T04:25:05;13.10;99.90
19734;DHT22;10018;51.230;7.860;2022-10-16T04:27:31;13.20;99.90
19734;DHT22;10018;51.230;7.860;2022-10-16T04:30:00;13.30;99.90
19734;DHT22;10018;51.230;7.860;2022-10-16T04:32:26;13.30;99.90
19734;DHT22;10018;51.230;7.860;2022-10-16T04:34:52;13.30;99.90
19734;DHT22;10018;51.230;7.860;2022-10-16T04:37:17;13.20;99.90
19734;DHT22;10018;51.230;7.860;2022-10-16T04:39:43;13.20;99.90
19734;DHT22;10018;51.230;7.860;2022-10-16T04:42:10;13.20;99.90
19734;DHT22;10018;51.230;7.860;2022-10-16T04:44:35;13.10;99.90
19734;DHT22;10018;51.230;7.860;2022-10-16T04:47:01;13.00;99.90
19734;DHT22;10018;51.230;7.860;2022-10-16T04:49:26;13.00;99.90
19734;DHT22;10018;51.230;7.860;2022-10-16T04:51:52;12.90;99.90
19734;DHT22;10018;51.230;7.860;2022-10-16T04:54:17;12.80;99.90
19734;DHT22;10018;51.230;7.860;2022-10-16T04:56:43;12.80;99.90
19734;DHT22;10018;51.230;7.860;2022-10-16T04:59:15;12.80;99.90
19734;DHT22;10018;51.230;7.860;2022-10-16T05:01:41;12.70;99.90
19734;DHT22;10018;51.230;7.860;2022-10-16T05:04:06;12.60;99.90
19734;DHT22;10018;51.230;7.860;2022-10-16T05:06:32;12.60;99.90
19734;DHT22;10018;51.230;7.860;2022-10-16T05:08:57;12.70;99.90
19734;DHT22;10018;51.230;7.860;2022-10-16T05:11:23;12.70;99.90
19734;DHT22;10018;51.230;7.860;2022-10-16T05:13:48;12.60;99.90
19734;DHT22;10018;51.230;7.860;2022-10-16T05:16:14;12.60;99.90
19734;DHT22;10018;51.230;7.860;2022-10-16T05:18:39;12.70;99.90
19734;DHT22;10018;51.230;7.860;2022-10-16T05:21:05;12.70;99.90
19734;DHT22;10018;51.230;7.860;2022-10-16T05:23:31;12.70;99.90
19734;DHT22;10018;51.230;7.860;2022-10-16T05:25:57;12.70;99.90
19734;DHT22;10018;51.230;7.860;2022-10-16T05:28:28;12.70;99.90
19734;DHT22;10018;51.230;7.860;2022-10-16T05:30:54;12.70;99.90
19734;DHT22;10018;51.230;7.860;2022-10-16T05:33:20;12.70;99.90
19734;DHT22;10018;51.230;7.860;2022-10-16T05:35:46;12.70;99.90
19734;DHT22;10018;51.230;7.860;2022-10-16T05:38:11;12.70;99.90
19734;DHT22;10018;51.230;7.860;2022-10-16T05:40:37;12.60;99.90
19734;DHT22;10018;51.230;7.860;2022-10-16T05:43:03;12.70;99.90
19734;DHT22;10018;51.230;7.860;2022-10-16T05:45:28;12.60;99.90
19734;DHT22;10018;51.230;7.860;2022-10-16T05:47:54;12.60;99.90
19734;DHT22;10018;51.230;7.860;2022-10-16T05:50:19;12.60;99.90
19734;DHT22;10018;51.230;7.860;2022-10-16T05:52:45;12.60;99.90
19734;DHT22;10018;51.230;7.860;2022-10-16T05:55:10;12.60;99.90
19734;DHT22;10018;51.230;7.860;2022-10-16T05:57:36;12.60;99.90
19734;DHT22;10018;51.230;7.860;2022-10-16T06:00:02;12.60;99.90
19734;DHT22;10018;51.230;7.860;2022-10-16T06:02:27;12.50;99.90
19734;DHT22;10018;51.230;7.860;2022-10-16T06:04:53;12.50;99.90
19734;DHT22;10018;51.230;7.860;2022-10-16T06:07:19;12.40;99.90
19734;DHT22;10018;51.230;7.860;2022-10-16T06:09:48;12.40;99.90
19734;DHT22;10018;51.230;7.860;2022-10-16T06:12:14;12.50;99.90
19734;DHT22;10018;51.230;7.860;2022-10-16T06:14:39;12.40;99.90
19734;DHT22;10018;51.230;7.860;2022-10-16T06:17:05;12.40;99.90
19734;DHT22;10018;51.230;7.860;2022-10-16T06:19:30;12.40;99.90
19734;DHT22;10018;51.230;7.860;2022-10-16T06:21:56;12.40;99.90
19734;DHT22;10018;51.230;7.860;2022-10-16T06:24:23;12.50;99.90
19734;DHT22;10018;51.230;7.860;2022-10-16T06:26:48;12.50;99.90
19734;DHT22;10018;51.230;7.860;2022-10-16T06:29:14;12.50;99.90
19734;DHT22;10018;51.230;7.860;2022-10-16T06:31:39;12.50;99.90
19734;DHT22;10018;51.230;7.860;2022-10-16T06:34:05;12.60;99.90
19734;DHT22;10018;51.230;7.860;2022-10-16T06:36:34;12.50;99.90
19734;DHT22;10018;51.230;7.860;2022-10-16T06:39:00;12.50;99.90
19734;DHT22;10018;51.230;7.860;2022-10-16T06:41:25;12.60;99.90
19734;DHT22;10018;51.230;7.860;2022-10-16T06:43:51;12.60;99.90
19734;DHT22;10018;51.230;7.860;2022-10-16T06:46:20;12.60;99.90
19734;DHT22;10018;51.230;7.860;2022-10-16T06:48:46;12.70;99.90
19734;DHT22;10018;51.230;7.860;2022-10-16T06:51:16;12.70;99.90
19734;DHT22;10018;51.230;7.860;2022-10-16T06:53:44;12.70;99.90
19734;DHT22;10018;51.230;7.860;2022-10-16T06:56:15;12.80;99.90
19734;DHT22;10018;51.230;7.860;2022-10-16T06:58:42;12.70;99.90
19734;DHT22;10018;51.230;7.860;2022-10-16T07:01:08;12.80;99.90
19734;DHT22;10018;51.230;7.860;2022-10-16T07:03:36;12.80;99.90
19734;DHT22;10018;51.230;7.860;2022-10-16T07:06:04;12.90;99.90
19734;DHT22;10018;51.230;7.860;2022-10-16T07:08:34;13.00;99.90
19734;DHT22;10018;51.230;7.860;2022-10-16T07:11:00;13.10;99.90
19734;DHT22;10018;51.230;7.860;2022-10-16T07:13:26;13.20;99.90
19734;DHT22;10018;51.230;7.860;2022-10-16T07:15:52;13.30;99.90
19734;DHT22;10018;51.230;7.860;2022-10-16T07:18:17;13.40;99.90
19734;DHT22;10018;51.230;7.860;2022-10-16T07:20:43;13.40;99.90
19734;DHT22;10018;51.230;7.860;2022-10-16T07:23:09;13.50;99.90
19734;DHT22;10018;51.230;7.860;2022-10-16T07:25:34;13.60;99.90
19734;DHT22;10018;51.230;7.860;2022-10-16T07:28:00;13.60;99.90
19734;DHT22;10018;51.230;7.860;2022-10-16T07:30:25;13.70;99.90
19734;DHT22;10018;51.230;7.860;2022-10-16T07:32:51;13.80;99.90
19734;DHT22;10018;51.230;7.860;2022-10-16T07:35:16;13.90;99.90
19734;DHT22;10018;51.230;7.860;2022-10-16T07:37:45;14.00;99.90
19734;DHT22;10018;51.230;7.860;2022-10-16T07:40:11;14.10;99.90
19734;DHT22;10018;51.230;7.860;2022-10-16T07:42:36;14.10;99.90
19734;DHT22;10018;51.230;7.860;2022-10-16T07:45:02;14.20;99.90
19734;DHT22;10018;51.230;7.860;2022-10-16T07:47:28;14.30;99.90
19734;DHT22;10018;51.230;7.860;2022-10-16T07:49:53;14.40;99.90
19734;DHT22;10018;51.230;7.860;2022-10-16T07:52:19;14.50;99.90
19734;DHT22;10018;51.230;7.860;2022-10-16T07:54:44;14.50;99.90
19734;DHT22;10018;51.230;7.860;2022-10-16T07:57:10;14.60;99.90
19734;DHT22;10018;51.230;7.860;2022-10-16T07:59:35;14.60;99.90
19734;DHT22;10018;51.230;7.860;2022-10-16T08:02:01;14.70;99.90
19734;DHT22;10018;51.230;7.860;2022-10-16T08:04:26;14.70;99.90
19734;DHT22;10018;51.230;7.860;2022-10-16T08:06:52;14.80;99.90
19734;DHT22;10018;51.230;7.860;2022-10-16T08:09:17;14.90;99.90
19734;DHT22;10018;51.230;7.860;2022-10-16T08:11:43;15.00;99.90
19734;DHT22;10018;51.230;7.860;2022-10-16T08:14:08;15.00;99.90
19734;DHT22;10018;51.230;7.860;2022-10-16T08:16:33;15.10;99.90
19734;DHT22;10018;51.230;7.860;2022-10-16T08:18:59;15.00;99.90
19734;DHT22;10018;51.230;7.860;2022-10-16T08:21:24;15.10;99.90
19734;DHT22;10018;51.230;7.860;2022-10-16T08:23:50;15.00;99.90
19734;DHT22;10018;51.230;7.860;2022-10-16T08:26:16;15.10;99.90
19734;DHT22;10018;51.230;7.860;2022-10-16T08:28:41;15.10;99.90
19734;DHT22;10018;51.230;7.860;2022-10-16T08:31:12;15.20;99.90
19734;DHT22;10018;51.230;7.860;2022-10-16T08:33:40;15.20;99.90
19734;DHT22;10018;51.230;7.860;2022-10-16T08:36:06;15.30;99.90
19734;DHT22;10018;51.230;7.860;2022-10-16T08:38:32;15.30;99.90
19734;DHT22;10018;51.230;7.860;2022-10-16T08:47:17;15.50;99.90
19734;DHT22;10018;51.230;7.860;2022-10-16T08:50:00;15.70;99.90
19734;DHT22;10018;51.230;7.860;2022-10-16T08:52:32;15.90;99.90
19734;DHT22;10018;51.230;7.860;2022-10-16T08:54:59;15.90;99.90
19734;DHT22;10018;51.230;7.860;2022-10-16T08:57:25;16.00;99.90
19734;DHT22;10018;51.230;7.860;2022-10-16T08:59:59;16.10;99.90
19734;DHT22;10018;51.230;7.860;2022-10-16T09:02:40;16.20;99.90
19734;DHT22;10018;51.230;7.860;2022-10-16T09:08:01;16.20;99.90
19734;DHT22;10018;51.230;7.860;2022-10-16T09:10:56;16.30;99.90
19734;DHT22;10018;51.230;7.860;2022-10-16T09:16:26;16.10;99.90
19734;DHT22;10018;51.230;7.860;2022-10-16T09:19:17;16.00;99.90
19734;DHT22;10018;51.230;7.860;2022-10-16T09:21:45;16.10;99.90
19734;DHT22;10018;51.230;7.860;2022-10-16T09:24:21;16.10;99.90
19734;DHT22;10018;51.230;7.860;2022-10-16T09:26:47;16.20;99.90
19734;DHT22;10018;51.230;7.860;2022-10-16T09:29:17;16.20;99.90
19734;DHT22;10018;51.230;7.860;2022-10-16T09:31:46;16.20;99.90
19734;DHT22;10018;51.230;7.860;2022-10-16T09:34:24;16.30;99.90
19734;DHT22;10018;51.230;7.860;2022-10-16T09:36:51;16.40;99.90
19734;DHT22;10018;51.230;7.860;2022-10-16T09:39:17;16.50;99.90
19734;DHT22;10018;51.230;7.860;2022-10-16T09:41:44;16.60;99.90
19734;DHT22;10018;51.230;7.860;2022-10-16T09:46:48;16.80;99.90
19734;DHT22;10018;51.230;7.860;2022-10-16T09:49:25;16.70;99.90
19734;DHT22;10018;51.230;7.860;2022-10-16T09:52:02;16.80;99.90
19734;DHT22;10018;51.230;7.860;2022-10-16T09:54:27;16.80;99.90
19734;DHT22;10018;51.230;7.860;2022-10-16T09:57:04;16.90;99.90
19734;DHT22;10018;51.230;7.860;2022-10-16T09:59:31;17.00;99.90
19734;DHT22;10018;51.230;7.860;2022-10-16T10:02:01;17.10;99.90
19734;DHT22;10018;51.230;7.860;2022-10-16T10:04:38;17.00;99.90
19734;DHT22;10018;51.230;7.860;2022-10-16T10:07:04;17.00;99.90
19734;DHT22;10018;51.230;7.860;2022-10-16T10:09:38;17.00;99.90
19734;DHT22;10018;51.230;7.860;2022-10-16T10:12:19;17.00;99.90
19734;DHT22;10018;51.230;7.860;2022-10-16T10:14:47;17.00;99.90
19734;DHT22;10018;51.230;7.860;2022-10-16T10:17:14;17.10;99.90
19734;DHT22;10018;51.230;7.860;2022-10-16T10:19:57;17.20;99.90
19734;DHT22;10018;51.230;7.860;2022-10-16T10:22:41;17.20;99.90
19734;DHT22;10018;51.230;7.860;2022-10-16T10:28:05;17.30;99.90
19734;DHT22;10018;51.230;7.860;2022-10-16T10:30:50;17.30;99.90
19734;DHT22;10018;51.230;7.860;2022-10-16T10:33:25;17.30;99.90
19734;DHT22;10018;51.230;7.860;2022-10-16T10:38:45;17.20;99.90
19734;DHT22;10018;51.230;7.860;2022-10-16T10:44:16;17.40;99.90
19734;DHT22;10018;51.230;7.860;2022-10-16T10:46:53;17.50;99.90
19734;DHT22;10018;51.230;7.860;2022-10-16T10:55:10;17.50;99.90
19734;DHT22;10018;51.230;7.860;2022-10-16T10:57:52;17.50;99.90
19734;DHT22;10018;51.230;7.860;2022-10-16T11:01:08;17.60;99.90
19734;DHT22;10018;51.230;7.860;2022-10-16T11:03:25;17.80;99.90
19734;DHT22;10018;51.230;7.860;2022-10-16T11:06:06;18.00;99.90
19734;DHT22;10018;51.230;7.860;2022-10-16T11:08:40;18.20;99.90
19734;DHT22;10018;51.230;7.860;2022-10-16T11:11:20;18.20;99.90
19734;DHT22;10018;51.230;7.860;2022-10-16T11:14:06;18.30;99.90
19734;DHT22;10018;51.230;7.860;2022-10-16T11:16:45;18.30;99.90
19734;DHT22;10018;51.230;7.860;2022-10-16T11:25:18;18.50;99.90
19734;DHT22;10018;51.230;7.860;2022-10-16T11:27:50;18.50;99.90
19734;DHT22;10018;51.230;7.860;2022-10-16T11:30:26;18.30;99.90
19734;DHT22;10018;51.230;7.860;2022-10-16T11:38:09;17.90;99.90
19734;DHT22;10018;51.230;7.860;2022-10-16T11:40:38;17.90;99.90
19734;DHT22;10018;51.230;7.860;2022-10-16T11:43:22;18.00;99.90
19734;DHT22;10018;51.230;7.860;2022-10-16T11:45:52;18.10;99.90
19734;DHT22;10018;51.230;7.860;2022-10-16T11:48:43;18.20;99.90
19734;DHT22;10018;51.230;7.860;2022-10-16T11:51:33;18.30;99.90
19734;DHT22;10018;51.230;7.860;2022-10-16T11:54:15;18.40;99.90
19734;DHT22;10018;51.230;7.860;2022-10-16T11:56:44;18.50;99.90
19734;DHT22;10018;51.230;7.860;2022-10-16T12:05:28;18.50;99.90
19734;DHT22;10018;51.230;7.860;2022-10-16T12:08:14;18.30;99.90
19734;DHT22;10018;51.230;7.860;2022-10-16T12:10:43;18.10;99.90
19734;DHT22;10018;51.230;7.860;2022-10-16T12:18:31;18.30;99.90
19734;DHT22;10018;51.230;7.860;2022-10-16T12:20:58;18.60;99.90
19734;DHT22;10018;51.230;7.860;2022-10-16T12:23:29;19.00;99.90
19734;DHT22;10018;51.230;7.860;2022-10-16T12:25:56;19.20;99.90
19734;DHT22;10018;51.230;7.860;2022-10-16T12:28:27;19.30;99.90
19734;DHT22;10018;51.230;7.860;2022-10-16T12:30:58;19.60;99.90
19734;DHT22;10018;51.230;7.860;2022-10-16T12:33:25;19.70;99.90
19734;DHT22;10018;51.230;7.860;2022-10-16T12:35:52;19.60;99.90
19734;DHT22;10018;51.230;7.860;2022-10-16T12:38:21;19.20;99.90
19734;DHT22;10018;51.230;7.860;2022-10-16T12:41:26;18.90;99.90
19734;DHT22;10018;51.230;7.860;2022-10-16T12:43:53;18.70;99.90
19734;DHT22;10018;51.230;7.860;2022-10-16T12:48:44;18.50;99.90
19734;DHT22;10018;51.230;7.860;2022-10-16T12:51:19;18.40;99.90
19734;DHT22;10018;51.230;7.860;2022-10-16T12:56:41;18.40;99.90
19734;DHT22;10018;51.230;7.860;2022-10-16T12:59:19;18.40;99.90
19734;DHT22;10018;51.230;7.860;2022-10-16T13:02:00;18.40;99.90
19734;DHT22;10018;51.230;7.860;2022-10-16T13:05:13;18.40;99.90
19734;DHT22;10018;51.230;7.860;2022-10-16T13:10:26;18.30;99.90
19734;DHT22;10018;51.230;7.860;2022-10-16T13:13:14;18.10;99.90
19734;DHT22;10018;51.230;7.860;2022-10-16T13:15:52;18.10;99.90
19734;DHT22;10018;51.230;7.860;2022-10-16T13:18:29;18.10;99.90
19734;DHT22;10018;51.230;7.860;2022-10-16T13:21:11;18.00;99.90
19734;DHT22;10018;51.230;7.860;2022-10-16T13:26:18;17.90;99.90
19734;DHT22;10018;51.230;7.860;2022-10-16T13:28:47;17.90;99.90
19734;DHT22;10018;51.230;7.860;2022-10-16T13:31:17;17.90;99.90
19734;DHT22;10018;51.230;7.860;2022-10-16T13:33:47;18.80;99.90
19734;DHT22;10018;51.230;7.860;2022-10-16T13:36:23;20.10;99.90
19734;DHT22;10018;51.230;7.860;2022-10-16T13:39:01;21.00;99.90
19734;DHT22;10018;51.230;7.860;2022-10-16T13:41:31;20.90;99.90
19734;DHT22;10018;51.230;7.860;2022-10-16T13:43:57;20.80;99.90
19734;DHT22;10018;51.230;7.860;2022-10-16T13:46:24;20.70;99.90
19734;DHT22;10018;51.230;7.860;2022-10-16T13:49:14;21.50;99.90
19734;DHT22;10018;51.230;7.860;2022-10-16T13:51:40;23.50;99.90
19734;DHT22;10018;51.230;7.860;2022-10-16T13:54:11;24.00;99.90
19734;DHT22;10018;51.230;7.860;2022-10-16T13:56:39;23.70;99.90
19734;DHT22;10018;51.230;7.860;2022-10-16T13:59:22;23.10;99.90
19734;DHT22;10018;51.230;7.860;2022-10-16T14:01:49;22.10;99.90
19734;DHT22;10018;51.230;7.860;2022-10-16T14:04:16;21.20;99.90
19734;DHT22;10018;51.230;7.860;2022-10-16T14:06:44;20.70;99.90
19734;DHT22;10018;51.230;7.860;2022-10-16T14:09:22;20.50;99.90
19734;DHT22;10018;51.230;7.860;2022-10-16T14:11:51;20.40;99.90
19734;DHT22;10018;51.230;7.860;2022-10-16T14:14:22;20.10;99.90
19734;DHT22;10018;51.230;7.860;2022-10-16T14:16:48;19.70;99.90
19734;DHT22;10018;51.230;7.860;2022-10-16T14:19:24;19.60;99.90
19734;DHT22;10018;51.230;7.860;2022-10-16T14:21:51;19.30;99.90
19734;DHT22;10018;51.230;7.860;2022-10-16T14:24:27;19.20;99.90
19734;DHT22;10018;51.230;7.860;2022-10-16T14:26:53;19.00;99.90
19734;DHT22;10018;51.230;7.860;2022-10-16T14:29:21;18.90;99.90
19734;DHT22;10018;51.230;7.860;2022-10-16T14:31:59;18.80;99.90
19734;DHT22;10018;51.230;7.860;2022-10-16T14:34:36;18.60;99.90
19734;DHT22;10018;51.230;7.860;2022-10-16T14:37:25;18.50;99.90
19734;DHT22;10018;51.230;7.860;2022-10-16T14:39:51;18.40;99.90
19734;DHT22;10018;51.230;7.860;2022-10-16T14:42:19;18.40;99.90
19734;DHT22;10018;51.230;7.860;2022-10-16T14:44:46;18.40;99.90
19734;DHT22;10018;51.230;7.860;2022-10-16T14:47:15;18.50;99.90
19734;DHT22;10018;51.230;7.860;2022-10-16T14:49:42;18.40;99.90
19734;DHT22;10018;51.230;7.860;2022-10-16T14:52:12;18.40;99.90
19734;DHT22;10018;51.230;7.860;2022-10-16T14:54:37;18.30;99.90
19734;DHT22;10018;51.230;7.860;2022-10-16T14:57:03;18.20;99.90
19734;DHT22;10018;51.230;7.860;2022-10-16T14:59:40;18.10;99.90
19734;DHT22;10018;51.230;7.860;2022-10-16T15:02:30;18.00;99.90
19734;DHT22;10018;51.230;7.860;2022-10-16T15:04:56;17.90;99.90
19734;DHT22;10018;51.230;7.860;2022-10-16T15:07:22;17.90;99.90
19734;DHT22;10018;51.230;7.860;2022-10-16T15:09:48;17.90;99.90
19734;DHT22;10018;51.230;7.860;2022-10-16T15:12:14;17.90;99.90
19734;DHT22;10018;51.230;7.860;2022-10-16T15:14:39;17.80;99.90
19734;DHT22;10018;51.230;7.860;2022-10-16T15:17:05;17.90;99.90
19734;DHT22;10018;51.230;7.860;2022-10-16T15:19:30;18.20;99.90
19734;DHT22;10018;51.230;7.860;2022-10-16T15:21:56;18.80;99.90
19734;DHT22;10018;51.230;7.860;2022-10-16T15:24:21;19.20;99.90
19734;DHT22;10018;51.230;7.860;2022-10-16T15:26:47;19.60;99.90
19734;DHT22;10018;51.230;7.860;2022-10-16T15:29:14;20.20;99.90
19734;DHT22;10018;51.230;7.860;2022-10-16T15:31:40;20.20;99.90
19734;DHT22;10018;51.230;7.860;2022-10-16T15:34:08;19.90;99.90
19734;DHT22;10018;51.230;7.860;2022-10-16T15:36:36;19.40;99.90
19734;DHT22;10018;51.230;7.860;2022-10-16T15:39:03;18.90;99.90
19734;DHT22;10018;51.230;7.860;2022-10-16T15:41:29;18.60;99.90
19734;DHT22;10018;51.230;7.860;2022-10-16T15:43:55;18.30;99.90
19734;DHT22;10018;51.230;7.860;2022-10-16T15:46:22;17.90;99.90
19734;DHT22;10018;51.230;7.860;2022-10-16T15:48:49;17.70;99.90
19734;DHT22;10018;51.230;7.860;2022-10-16T15:51:15;17.50;99.90
19734;DHT22;10018;51.230;7.860;2022-10-16T15:53:41;17.30;99.90
19734;DHT22;10018;51.230;7.860;2022-10-16T15:56:08;17.00;99.90
19734;DHT22;10018;51.230;7.860;2022-10-16T15:58:34;16.90;99.90
19734;DHT22;10018;51.230;7.860;2022-10-16T16:01:00;16.90;99.90
19734;DHT22;10018;51.230;7.860;2022-10-16T16:03:27;16.80;99.90
19734;DHT22;10018;51.230;7.860;2022-10-16T16:05:53;16.80;99.90
19734;DHT22;10018;51.230;7.860;2022-10-16T16:08:19;16.70;99.90
19734;DHT22;10018;51.230;7.860;2022-10-16T16:10:45;16.60;99.90
19734;DHT22;10018;51.230;7.860;2022-10-16T16:13:11;16.50;99.90
19734;DHT22;10018;51.230;7.860;2022-10-16T16:15:40;16.50;99.90
19734;DHT22;10018;51.230;7.860;2022-10-16T16:18:06;16.40;99.90
19734;DHT22;10018;51.230;7.860;2022-10-16T16:20:31;16.30;99.90
19734;DHT22;10018;51.230;7.860;2022-10-16T16:22:57;16.20;99.90
19734;DHT22;10018;51.230;7.860;2022-10-16T16:25:23;16.10;99.90
19734;DHT22;10018;51.230;7.860;2022-10-16T16:27:48;16.10;99.90
19734;DHT22;10018;51.230;7.860;2022-10-16T16:30:14;16.10;99.90
19734;DHT22;10018;51.230;7.860;2022-10-16T16:32:39;16.10;99.90
19734;DHT22;10018;51.230;7.860;2022-10-16T16:35:05;16.10;99.90
19734;DHT22;10018;51.230;7.860;2022-10-16T16:37:31;16.00;99.90
19734;DHT22;10018;51.230;7.860;2022-10-16T16:39:57;16.00;99.90
19734;DHT22;10018;51.230;7.860;2022-10-16T16:42:25;16.00;99.90
19734;DHT22;10018;51.230;7.860;2022-10-16T16:44:51;16.00;99.90
19734;DHT22;10018;51.230;7.860;2022-10-16T16:47:16;16.00;99.90
19734;DHT22;10018;51.230;7.860;2022-10-16T16:49:42;16.00;99.90
19734;DHT22;10018;51.230;7.860;2022-10-16T16:52:07;15.90;99.90
19734;DHT22;10018;51.230;7.860;2022-10-16T16:54:33;15.90;99.90
19734;DHT22;10018;51.230;7.860;2022-10-16T16:56:58;15.80;99.90
19734;DHT22;10018;51.230;7.860;2022-10-16T16:59:24;15.70;99.90
19734;DHT22;10018;51.230;7.860;2022-10-16T17:01:50;15.80;99.90
19734;DHT22;10018;51.230;7.860;2022-10-16T17:04:16;15.80;99.90
19734;DHT22;10018;51.230;7.860;2022-10-16T17:06:42;15.80;99.90